Station Historical Data
Daily Summary for April 21, 2017 Units:  Metric    English   Both
« Previous Day
Next Day »
Daily Weekly Monthly Yearly Custom
  High: Low: Average:
Temperature: 11.4 °C 6.8 °C 8.9 °C
Dew Point: 10.6 °C 3.2 °C 7 °C
Humidity: 96% 73% 88%
Wind Speed: 24.1km/h 0km/h 7.7km/h
Wind Gust: 38.6km/h - -
Wind- - WSW
Pressure: 1016.5 hPa 1007.7 hPa -
Precipitation: 0 mm    
Historical Graphs
 
 
Tabular Data for April 21, 2017
Time Temperature Dew Point Pressure Wind Wind Speed Wind Gust Humidity Rainfall Rate (Hourly)
00:04 10.5 °C 9.7 °C 1008.7 hPa NNW 3.2 km/h 3.2 km/h 95% 0.25 mm
00:09 10.6 °C 9.6 °C 1009 hPa NNW 1.6 km/h 6.4 km/h 94% 0.25 mm
00:14 10.5 °C 9.6 °C 1008.7 hPa NNW 3.2 km/h 6.4 km/h 94% 0.25 mm
00:19 10.4 °C 9.4 °C 1008.7 hPa NNW 1.6 km/h 4.8 km/h 94% 0.25 mm
00:24 10.3 °C 9.3 °C 1008.4 hPa Calm     94% 0.25 mm
00:29 10.1 °C 9.1 °C 1008.4 hPa NNW 1.6 km/h 3.2 km/h 94% 0.25 mm
00:34 10 °C 9.1 °C 1008.4 hPa Calm   4.8 km/h 94% 0.25 mm
00:39 10 °C 9.1 °C 1008.4 hPa Calm     94% 0.25 mm
00:44 10 °C 9.1 °C 1008.4 hPa Calm     94% 0.25 mm
00:49 10.1 °C 9.1 °C 1008.4 hPa Calm   3.2 km/h 94% 0.25 mm
00:54 10.1 °C 9.1 °C 1008.4 hPa Calm   3.2 km/h 94% 0.25 mm
00:59 10 °C 9.1 °C 1008 hPa SSW 1.6 km/h 4.8 km/h 94% 0 mm
01:04 10.1 °C 9.1 °C 1008 hPa South 1.6 km/h 4.8 km/h 94% 0 mm
01:09 10.1 °C 9.2 °C 1008 hPa SSE 1.6 km/h 3.2 km/h 94% 0 mm
01:14 10.2 °C 9.4 °C 1008 hPa Calm   3.2 km/h 95% 0 mm
01:19 10.2 °C 9.2 °C 1008 hPa Calm     94% 0 mm
01:24 10.1 °C 9.2 °C 1008 hPa Calm     94% 0 mm
01:29 10 °C 9.1 °C 1008 hPa Calm     94% 0 mm
01:34 10 °C 9.1 °C 1007.7 hPa Calm     94% 0 mm
01:39 10.1 °C 9.3 °C 1008 hPa Calm     95% 0 mm
01:44 10.2 °C 9.4 °C 1008 hPa Calm     95% 0 mm
01:49 10.3 °C 9.5 °C 1007.7 hPa Calm     95% 0 mm
01:54 10.4 °C 9.6 °C 1007.7 hPa Calm     95% 0 mm
01:59 10.5 °C 9.7 °C 1007.7 hPa Calm     95% 0 mm
02:04 10.5 °C 9.7 °C 1007.7 hPa Calm     95% 0 mm
02:09 10.5 °C 9.7 °C 1007.7 hPa Calm     95% 0 mm
02:14 10.5 °C 9.7 °C 1007.7 hPa Calm     95% 0 mm
02:19 10.6 °C 9.8 °C 1007.7 hPa Calm     95% 0 mm
02:24 10.8 °C 10.1 °C 1007.7 hPa Calm   4.8 km/h 95% 0 mm
02:29 11.1 °C 10.3 °C 1008 hPa SW 1.6 km/h 4.8 km/h 95% 0 mm
02:34 11.2 °C 10.4 °C 1007.7 hPa WSW 3.2 km/h 6.4 km/h 95% 0 mm
02:39 11.2 °C 10.4 °C 1007.7 hPa SW 6.4 km/h 8 km/h 95% 0 mm
02:44 11.3 °C 10.5 °C 1008 hPa West 4.8 km/h 6.4 km/h 95% 0 mm
02:49 11.3 °C 10.6 °C 1008 hPa West 3.2 km/h 8 km/h 95% 0 mm
02:54 11.3 °C 10.6 °C 1008 hPa West 4.8 km/h 8 km/h 95% 0 mm
02:59 11.3 °C 10.5 °C 1008 hPa WSW 3.2 km/h 4.8 km/h 95% 0 mm
03:04 11.3 °C 10.6 °C 1008 hPa West 1.6 km/h 6.4 km/h 95% 0 mm
03:09 11.4 °C 10.6 °C 1007.7 hPa WNW 4.8 km/h 9.7 km/h 95% 0 mm
03:14 11.3 °C 10.6 °C 1008 hPa West 3.2 km/h 9.7 km/h 95% 0 mm
03:19 11.3 °C 10.5 °C 1007.7 hPa WNW 4.8 km/h 11.3 km/h 95% 0 mm
03:24 11.2 °C 10.4 °C 1007.7 hPa West 4.8 km/h 11.3 km/h 95% 0 mm
03:29 11.2 °C 10.4 °C 1007.7 hPa West 4.8 km/h 8 km/h 95% 0 mm
03:34 11.2 °C 10.4 °C 1007.7 hPa West 3.2 km/h 8 km/h 95% 0 mm
03:39 11.2 °C 10.4 °C 1007.7 hPa West 3.2 km/h 8 km/h 95% 0 mm
03:44 11.2 °C 10.4 °C 1007.7 hPa West 3.2 km/h 8 km/h 95% 0 mm
03:49 11.2 °C 10.4 °C 1007.7 hPa West 3.2 km/h 8 km/h 95% 0 mm
03:54 11.2 °C 10.4 °C 1008 hPa West 3.2 km/h 4.8 km/h 95% 0 mm
03:59 11.2 °C 10.4 °C 1007.7 hPa WSW 1.6 km/h 6.4 km/h 95% 0 mm
04:04 11.2 °C 10.4 °C 1007.7 hPa WSW 3.2 km/h 4.8 km/h 95% 0 mm
04:09 11.2 °C 10.4 °C 1008 hPa Calm   6.4 km/h 95% 0 mm
04:14 11.2 °C 10.4 °C 1008 hPa SW 1.6 km/h 6.4 km/h 95% 0 mm
04:19 11.2 °C 10.4 °C 1008 hPa West 6.4 km/h 6.4 km/h 95% 0 mm
04:24 11.2 °C 10.4 °C 1008.4 hPa SW 3.2 km/h 6.4 km/h 95% 0 mm
04:29 11.2 °C 10.4 °C 1008.4 hPa WSW 3.2 km/h 6.4 km/h 95% 0 mm
04:34 11.2 °C 10.4 °C 1008 hPa SW 3.2 km/h 6.4 km/h 95% 0 mm
04:39 11.2 °C 10.4 °C 1008 hPa SW 3.2 km/h 8 km/h 95% 0 mm
04:44 11.1 °C 10.3 °C 1008.4 hPa SSW 8 km/h 9.7 km/h 95% 0 mm
04:49 10.8 °C 9.9 °C 1008.4 hPa SW 4.8 km/h 11.3 km/h 94% 0 mm
04:54 10.6 °C 9.6 °C 1008.7 hPa SW 6.4 km/h 14.5 km/h 94% 0 mm
04:59 10.2 °C 9.2 °C 1008.7 hPa SW 6.4 km/h 14.5 km/h 94% 0 mm
05:04 9.9 °C 9 °C 1008.4 hPa WSW 4.8 km/h 12.9 km/h 94% 0 mm
05:09 9.7 °C 8.8 °C 1008.4 hPa Calm   6.4 km/h 94% 0 mm
05:14 9.6 °C 8.7 °C 1008.4 hPa West 3.2 km/h 8 km/h 94% 0 mm
05:19 9.6 °C 8.8 °C 1008.4 hPa WSW 4.8 km/h 6.4 km/h 95% 0 mm
05:24 9.7 °C 8.9 °C 1008.4 hPa WSW 3.2 km/h 8 km/h 95% 0 mm
05:29 9.8 °C 9 °C 1008.7 hPa WSW 4.8 km/h 8 km/h 95% 0 mm
05:34 9.9 °C 9.1 °C 1008.7 hPa SW 6.4 km/h 9.7 km/h 95% 0 mm
05:39 9.9 °C 9.1 °C 1009 hPa SW 11.3 km/h 12.9 km/h 95% 0 mm
05:44 9.8 °C 9 °C 1009 hPa SW 3.2 km/h 12.9 km/h 95% 0 mm
05:49 9.6 °C 8.7 °C 1008.7 hPa WSW 1.6 km/h 8 km/h 94% 0 mm
05:54 9.4 °C 8.5 °C 1008.7 hPa SW 3.2 km/h 8 km/h 94% 0 mm
05:59 9.3 °C 8.4 °C 1009 hPa SW 3.2 km/h 9.7 km/h 94% 0 mm
06:04 9.2 °C 8.4 °C 1009.4 hPa SW 4.8 km/h 9.7 km/h 95% 0 mm
06:09 8.9 °C 8.1 °C 1009.4 hPa SW 6.4 km/h 11.3 km/h 94% 0 mm
06:14 8.8 °C 7.9 °C 1009.4 hPa SW 6.4 km/h 11.3 km/h 94% 0 mm
06:19 8.7 °C 7.9 °C 1009.4 hPa SW 6.4 km/h 12.9 km/h 95% 0 mm
06:24 8.6 °C 7.7 °C 1009.4 hPa SSW 8 km/h 14.5 km/h 94% 0 mm
06:29 8.3 °C 7.4 °C 1009.4 hPa WSW 8 km/h 14.5 km/h 94% 0 mm
06:34 8.4 °C 7.5 °C 1010 hPa West 4.8 km/h 14.5 km/h 94% 0 mm
06:39 8.3 °C 7.6 °C 1009.7 hPa SW 6.4 km/h 14.5 km/h 95% 0 mm
06:44 8.3 °C 7.6 °C 1009.7 hPa WSW 4.8 km/h 17.7 km/h 95% 0 mm
06:49 8.3 °C 7.6 °C 1010 hPa WSW 8 km/h 19.3 km/h 95% 0 mm
06:54 8.3 °C 7.6 °C 1010 hPa WSW 8 km/h 19.3 km/h 95% 0 mm
06:59 8.3 °C 7.6 °C 1010 hPa WSW 8 km/h 16.1 km/h 95% 0 mm
07:04 8.3 °C 7.5 °C 1010.4 hPa WSW 9.7 km/h 17.7 km/h 95% 0 mm
07:09 8.3 °C 7.5 °C 1010.4 hPa SW 9.7 km/h 16.1 km/h 95% 0 mm
07:14 8.2 °C 7.4 °C 1010.4 hPa WSW 8 km/h 16.1 km/h 95% 0 mm
07:19 8.2 °C 7.4 °C 1010.4 hPa WSW 8 km/h 17.7 km/h 95% 0 mm
07:24 8.1 °C 7.3 °C 1010.4 hPa WSW 8 km/h 22.5 km/h 95% 0 mm
07:29 8.1 °C 7.3 °C 1010.4 hPa WSW 8 km/h 22.5 km/h 95% 0 mm
07:34 8.1 °C 7.3 °C 1010.4 hPa SW 9.7 km/h 16.1 km/h 95% 0 mm
07:39 8.2 °C 7.4 °C 1010.4 hPa SW 8 km/h 12.9 km/h 95% 0 mm
07:44 8.2 °C 7.4 °C 1010.7 hPa SW 9.7 km/h 17.7 km/h 95% 0 mm
07:49 8.2 °C 7.4 °C 1010.7 hPa SW 9.7 km/h 19.3 km/h 95% 0 mm
07:54 8.3 °C 7.5 °C 1010.7 hPa SW 9.7 km/h 19.3 km/h 95% 0 mm
07:59 8.3 °C 7.6 °C 1010.7 hPa WSW 11.3 km/h 20.9 km/h 95% 0 mm
08:04 8.3 °C 7.5 °C 1011.1 hPa WSW 8 km/h 20.9 km/h 95% 0 mm
08:09 8.3 °C 7.6 °C 1011.1 hPa WSW 6.4 km/h 20.9 km/h 95% 0 mm
08:14 8.3 °C 7.6 °C 1011.1 hPa WSW 9.7 km/h 19.3 km/h 95% 0 mm
08:19 8.4 °C 7.6 °C 1011.1 hPa West 4.8 km/h 14.5 km/h 95% 0 mm
08:24 8.3 °C 7.6 °C 1011.1 hPa WSW 8 km/h 20.9 km/h 95% 0 mm
08:29 8.3 °C 7.5 °C 1011.1 hPa WSW 8 km/h 20.9 km/h 95% 0 mm
08:34 8.3 °C 7.6 °C 1011.1 hPa WSW 6.4 km/h 20.9 km/h 95% 0 mm
08:39 8.2 °C 7.4 °C 1011.4 hPa SW 12.9 km/h 17.7 km/h 95% 0 mm
08:44 8.1 °C 7.3 °C 1011.4 hPa WSW 9.7 km/h 20.9 km/h 95% 0 mm
08:49 8.1 °C 7.3 °C 1011.4 hPa SW 14.5 km/h 16.1 km/h 95% 0 mm
08:54 7.9 °C 7.2 °C 1011.1 hPa WSW 9.7 km/h 20.9 km/h 95% 0 mm
08:59 7.9 °C 7.1 °C 1011.1 hPa WSW 9.7 km/h 20.9 km/h 95% 0 mm
09:04 7.9 °C 7.2 °C 1011.1 hPa WSW 8 km/h 17.7 km/h 95% 0 mm
09:09 8 °C 7.2 °C 1011.1 hPa WSW 16.1 km/h 17.7 km/h 95% 0 mm
09:14 8.1 °C 7.3 °C 1011.1 hPa SW 6.4 km/h 16.1 km/h 95% 0 mm
09:19 8 °C 7.2 °C 1011.1 hPa West 8 km/h 16.1 km/h 95% 0 mm
09:24 8.1 °C 7.3 °C 1011.1 hPa WSW 9.7 km/h 16.1 km/h 95% 0 mm
09:29 8.2 °C 7.6 °C 1011.1 hPa WSW 8 km/h 16.1 km/h 96% 0 mm
09:34 8.2 °C 7.4 °C 1011.1 hPa WSW 8 km/h 20.9 km/h 95% 0 mm
09:39 8.1 °C 7.3 °C 1011.4 hPa WSW 8 km/h 20.9 km/h 95% 0 mm
09:44 7.9 °C 7.1 °C 1011.4 hPa WSW 9.7 km/h 25.7 km/h 95% 0 mm
09:49 7.8 °C 7 °C 1011.4 hPa WSW 12.9 km/h 17.7 km/h 95% 0 mm
09:54 7.6 °C 6.9 °C 1011.4 hPa West 8 km/h 20.9 km/h 95% 0 mm
09:59 7.7 °C 6.9 °C 1011.4 hPa SW 9.7 km/h 17.7 km/h 95% 0 mm
10:04 7.7 °C 6.9 °C 1011.4 hPa SW 4.8 km/h 19.3 km/h 95% 0 mm
10:09 7.8 °C 7 °C 1011.4 hPa SW 6.4 km/h 17.7 km/h 95% 0 mm
10:14 8.1 °C 7.3 °C 1011.4 hPa West 8 km/h 14.5 km/h 95% 0 mm
10:19 8.2 °C 7.4 °C 1011.4 hPa SW 6.4 km/h 16.1 km/h 95% 0 mm
10:24 8.3 °C 7.6 °C 1011.4 hPa WSW 6.4 km/h 16.1 km/h 95% 0 mm
10:29 8.4 °C 7.7 °C 1011.4 hPa WSW 6.4 km/h 12.9 km/h 95% 0 mm
10:34 8.4 °C 7.5 °C 1011.4 hPa WSW 8 km/h 16.1 km/h 94% 0 mm
10:39 8.4 °C 7.6 °C 1011.7 hPa WSW 8 km/h 16.1 km/h 94% 0 mm
10:44 8.4 °C 7.5 °C 1011.4 hPa SW 9.7 km/h 20.9 km/h 94% 0 mm
10:49 8 °C 6.9 °C 1011.7 hPa SW 11.3 km/h 20.9 km/h 93% 0 mm
10:54 7.8 °C 6.9 °C 1011.7 hPa SW 11.3 km/h 24.1 km/h 94% 0 mm
10:59 7.8 °C 6.9 °C 1011.7 hPa WSW 17.7 km/h 17.7 km/h 94% 0 mm
11:04 7.8 °C 6.9 °C 1011.7 hPa WSW 4.8 km/h 16.1 km/h 94% 0 mm
11:09 8 °C 7.1 °C 1011.7 hPa NW 11.3 km/h 17.7 km/h 94% 0 mm
11:14 8 °C 7.1 °C 1011.4 hPa West 16.1 km/h 19.3 km/h 94% 0 mm
11:19 8 °C 7.1 °C 1011.7 hPa WSW 14.5 km/h 19.3 km/h 94% 0 mm
11:24 8.1 °C 7.2 °C 1011.7 hPa SSW 3.2 km/h 17.7 km/h 94% 0 mm
11:29 8.2 °C 7.1 °C 1011.7 hPa WSW 9.7 km/h 20.9 km/h 93% 0 mm
11:34 8.1 °C 7.1 °C 1011.7 hPa SW 9.7 km/h 20.9 km/h 93% 0 mm
11:39 8.2 °C 7.1 °C 1012.1 hPa WSW 11.3 km/h 20.9 km/h 93% 0 mm
11:44 8.3 °C 7.2 °C 1012.1 hPa WSW 12.9 km/h 27.4 km/h 93% 0 mm
11:49 8.3 °C 7.1 °C 1011.7 hPa WSW 11.3 km/h 27.4 km/h 92% 0 mm
11:54 8.4 °C 7 °C 1012.1 hPa West 6.4 km/h 25.7 km/h 91% 0 mm
11:59 8.6 °C 7.2 °C 1012.1 hPa SW 11.3 km/h 25.7 km/h 91% 0 mm
12:04 8.9 °C 7.4 °C 1011.7 hPa SW 11.3 km/h 22.5 km/h 90% 0 mm
12:09 9 °C 7.1 °C 1012.1 hPa SW 17.7 km/h 27.4 km/h 88% 0 mm
12:14 9.1 °C 7 °C 1012.1 hPa West 16.1 km/h 30.6 km/h 87% 0 mm
12:19 9 °C 6.9 °C 1012.1 hPa West 16.1 km/h 29 km/h 87% 0 mm
12:24 9.1 °C 6.8 °C 1012.1 hPa SSW 16.1 km/h 25.7 km/h 86% 0 mm
12:29 9.1 °C 6.7 °C 1012.1 hPa SW 14.5 km/h 25.7 km/h 85% 0 mm
12:34 9 °C 6.6 °C 1012.1 hPa WSW 12.9 km/h 27.4 km/h 85% 0 mm
12:39 9 °C 6.4 °C 1012.1 hPa WSW 12.9 km/h 27.4 km/h 84% 0 mm
12:44 8.8 °C 6.3 °C 1012.1 hPa WSW 14.5 km/h 29 km/h 84% 0 mm
12:49 8.7 °C 6.2 °C 1011.7 hPa WSW 14.5 km/h 29 km/h 84% 0 mm
12:54 8.8 °C 6.4 °C 1012.1 hPa SW 12.9 km/h 24.1 km/h 85% 0 mm
12:59 8.8 °C 6.3 °C 1012.1 hPa SW 12.9 km/h 29 km/h 84% 0 mm
13:04 9.4 °C 7 °C 1012.1 hPa WSW 12.9 km/h 29 km/h 85% 0 mm
13:09 10 °C 7.2 °C 1012.1 hPa WSW 8 km/h 22.5 km/h 83% 0 mm
13:14 10.4 °C 7.5 °C 1012.1 hPa West 17.7 km/h 22.5 km/h 82% 0 mm
13:19 10.4 °C 7.3 °C 1012.1 hPa WNW 14.5 km/h 22.5 km/h 81% 0 mm
13:24 10.4 °C 7.5 °C 1012.1 hPa WSW 11.3 km/h 24.1 km/h 82% 0 mm
13:29 10.1 °C 7 °C 1012.1 hPa SW 14.5 km/h 32.2 km/h 81% 0 mm
13:34 10 °C 6.9 °C 1012.1 hPa WSW 16.1 km/h 32.2 km/h 81% 0 mm
13:39 10.1 °C 7 °C 1012.1 hPa West 11.3 km/h 30.6 km/h 81% 0 mm
13:44 10.4 °C 7.3 °C 1012.4 hPa WSW 11.3 km/h 30.6 km/h 81% 0 mm
13:49 10.8 °C 7.3 °C 1012.4 hPa SSW 22.5 km/h 30.6 km/h 79% 0 mm
13:54 11.1 °C 7.2 °C 1012.1 hPa SW 24.1 km/h 30.6 km/h 77% 0 mm
13:59 11.2 °C 7.1 °C 1012.1 hPa SW 17.7 km/h 33.8 km/h 76% 0 mm
14:04 11.2 °C 6.9 °C 1012.1 hPa WSW 19.3 km/h 33.8 km/h 75% 0 mm
14:09 11.2 °C 6.9 °C 1012.4 hPa WSW 17.7 km/h 38.6 km/h 75% 0 mm
14:14 11.1 °C 6.8 °C 1012.4 hPa West 11.3 km/h 27.4 km/h 75% 0 mm
14:19 11 °C 6.7 °C 1012.4 hPa SSW 11.3 km/h 20.9 km/h 75% 0 mm
14:24 10.6 °C 6.5 °C 1012.4 hPa SW 14.5 km/h 22.5 km/h 76% 0 mm
14:29 10.4 °C 6.4 °C 1012.4 hPa WSW 11.3 km/h 22.5 km/h 76% 0 mm
14:34 10.5 °C 6.8 °C 1012.4 hPa WSW 12.9 km/h 24.1 km/h 78% 0 mm
14:39 10.5 °C 6.6 °C 1012.4 hPa WSW 11.3 km/h 33.8 km/h 77% 0 mm
14:44 10.5 °C 6.4 °C 1012.4 hPa WSW 9.7 km/h 25.7 km/h 76% 0 mm
14:49 10.7 °C 6.6 °C 1012.4 hPa WSW 20.9 km/h 27.4 km/h 76% 0 mm
14:54 10.2 °C 6 °C 1012.4 hPa SW 22.5 km/h 30.6 km/h 75% 0 mm
14:59 10.1 °C 6 °C 1012.4 hPa WSW 22.5 km/h 29 km/h 76% 0 mm
15:04 9.9 °C 6.1 °C 1012.4 hPa WSW 14.5 km/h 29 km/h 77% 0 mm
15:09 9.9 °C 5.9 °C 1012.4 hPa WSW 14.5 km/h 27.4 km/h 76% 0 mm
15:14 9.9 °C 5.7 °C 1012.4 hPa WSW 14.5 km/h 29 km/h 75% 0 mm
15:19 9.9 °C 5.7 °C 1012.4 hPa WSW 12.9 km/h 30.6 km/h 75% 0 mm
15:24 10.1 °C 6 °C 1012.4 hPa WSW 24.1 km/h 27.4 km/h 76% 0 mm
15:29 10 °C 5.9 °C 1012.4 hPa WSW 14.5 km/h 37 km/h 76% 0 mm
15:34 10.3 °C 6.2 °C 1012.4 hPa SW 11.3 km/h 27.4 km/h 76% 0 mm
15:39 10.7 °C 6.6 °C 1012.4 hPa SW 20.9 km/h 20.9 km/h 76% 0 mm
15:44 10.7 °C 6 °C 1012.8 hPa West 20.9 km/h 33.8 km/h 73% 0 mm
15:49 10.6 °C 5.9 °C 1012.8 hPa WSW 12.9 km/h 25.7 km/h 73% 0 mm
15:54 10.3 °C 5.7 °C 1012.8 hPa SW 20.9 km/h 37 km/h 73% 0 mm
15:59 9.8 °C 5.4 °C 1012.8 hPa WSW 14.5 km/h 37 km/h 74% 0 mm
16:04 9.8 °C 5.7 °C 1012.8 hPa WSW 12.9 km/h 27.4 km/h 76% 0 mm
16:09 9.6 °C 5.6 °C 1012.4 hPa West 11.3 km/h 20.9 km/h 76% 0 mm
16:14 9.6 °C 5.6 °C 1012.4 hPa WSW 11.3 km/h 27.4 km/h 76% 0 mm
16:19 9.3 °C 5.3 °C 1012.4 hPa WSW 12.9 km/h 27.4 km/h 76% 0 mm
16:24 9 °C 5.2 °C 1012.4 hPa WSW 11.3 km/h 30.6 km/h 77% 0 mm
16:29 9.1 °C 5.4 °C 1012.4 hPa WSW 14.5 km/h 30.6 km/h 78% 0 mm
16:34 9.2 °C 5.6 °C 1012.8 hPa WNW 12.9 km/h 27.4 km/h 78% 0 mm
16:39 9.6 °C 5.7 °C 1012.8 hPa SSW 8 km/h 27.4 km/h 77% 0 mm
16:44 9.5 °C 5.7 °C 1012.8 hPa WSW 16.1 km/h 27.4 km/h 77% 0 mm
16:49 9.7 °C 5.9 °C 1013.1 hPa West 9.7 km/h 19.3 km/h 77% 0 mm
16:54 9.6 °C 5.7 °C 1013.1 hPa SW 14.5 km/h 27.4 km/h 77% 0 mm
16:59 9.2 °C 5.4 °C 1013.1 hPa WSW 14.5 km/h 30.6 km/h 77% 0 mm
17:04 9.1 °C 5.4 °C 1013.1 hPa WSW 16.1 km/h 32.2 km/h 78% 0 mm
17:09 8.9 °C 5.5 °C 1013.1 hPa WSW 14.5 km/h 32.2 km/h 79% 0 mm
17:14 8.9 °C 5.4 °C 1013.1 hPa WSW 12.9 km/h 29 km/h 79% 0 mm
17:19 8.8 °C 5.5 °C 1013.1 hPa West 16.1 km/h 33.8 km/h 80% 0 mm
17:24 8.6 °C 5.3 °C 1013.4 hPa WSW 12.9 km/h 33.8 km/h 80% 0 mm
17:29 8.3 °C 5.2 °C 1013.4 hPa WSW 14.5 km/h 35.4 km/h 81% 0 mm
17:34 8.2 °C 5.1 °C 1013.4 hPa West 9.7 km/h 24.1 km/h 81% 0 mm
17:39 8 °C 5.1 °C 1013.8 hPa West 16.1 km/h 35.4 km/h 82% 0 mm
17:44 7.8 °C 5.1 °C 1013.8 hPa WSW 12.9 km/h 25.7 km/h 83% 0 mm
17:49 7.6 °C 5 °C 1014.1 hPa WSW 19.3 km/h 24.1 km/h 84% 0 mm
17:54 7.4 °C 5.1 °C 1014.1 hPa WSW 12.9 km/h 24.1 km/h 85% 0 mm
17:59 7.3 °C 4.9 °C 1014.1 hPa WSW 12.9 km/h 20.9 km/h 85% 0 mm
18:04 7.3 °C 5.1 °C 1014.1 hPa WSW 9.7 km/h 20.9 km/h 86% 0 mm
18:09 7.2 °C 5.2 °C 1014.4 hPa WSW 8 km/h 16.1 km/h 87% 0 mm
18:14 7.2 °C 5.2 °C 1014.4 hPa West 11.3 km/h 14.5 km/h 87% 0 mm
18:19 7.1 °C 5.2 °C 1014.4 hPa WSW 8 km/h 16.1 km/h 88% 0 mm
18:24 6.9 °C 5.3 °C 1014.4 hPa WSW 8 km/h 17.7 km/h 89% 0 mm
18:29 6.9 °C 5.2 °C 1014.4 hPa WSW 8 km/h 17.7 km/h 89% 0 mm
18:34 6.9 °C 5.4 °C 1014.4 hPa WSW 8 km/h 14.5 km/h 90% 0 mm
18:39 6.9 °C 5.3 °C 1014.4 hPa West 9.7 km/h 14.5 km/h 89% 0 mm
18:44 6.9 °C 5.4 °C 1014.4 hPa SW 6.4 km/h 9.7 km/h 90% 0 mm
18:49 6.9 °C 5.4 °C 1014.4 hPa SW 8 km/h 9.7 km/h 90% 0 mm
18:54 6.9 °C 5.4 °C 1014.4 hPa SW 6.4 km/h 12.9 km/h 90% 0 mm
18:59 7.1 °C 5.5 °C 1014.4 hPa WSW 12.9 km/h 12.9 km/h 90% 0 mm
19:04 7.1 °C 5.5 °C 1014.4 hPa SW 4.8 km/h 12.9 km/h 90% 0 mm
19:09 7 °C 5.4 °C 1014.4 hPa SW 3.2 km/h 11.3 km/h 90% 0 mm
19:14 6.9 °C 5.2 °C 1014.4 hPa WSW 3.2 km/h 14.5 km/h 89% 0 mm
19:19 6.8 °C 5.2 °C 1014.4 hPa SW 6.4 km/h 14.5 km/h 89% 0 mm
19:24 6.8 °C 5.2 °C 1014.4 hPa SW 6.4 km/h 14.5 km/h 89% 0 mm
19:29 6.9 °C 5.3 °C 1014.4 hPa SW 4.8 km/h 12.9 km/h 89% 0 mm
19:34 6.9 °C 5.2 °C 1014.8 hPa SW 6.4 km/h 12.9 km/h 89% 0 mm
19:39 6.8 °C 5.2 °C 1014.4 hPa SW 6.4 km/h 12.9 km/h 89% 0 mm
19:44 6.9 °C 5.2 °C 1014.4 hPa SW 6.4 km/h 12.9 km/h 89% 0 mm
19:49 6.9 °C 5.1 °C 1014.8 hPa SW 6.4 km/h 8 km/h 88% 0 mm
19:54 6.8 °C 5 °C 1014.8 hPa SW 3.2 km/h 12.9 km/h 88% 0 mm
19:59 6.9 °C 5.2 °C 1014.8 hPa SW 4.8 km/h 8 km/h 89% 0 mm
20:04 6.8 °C 5 °C 1014.8 hPa WSW 4.8 km/h 9.7 km/h 88% 0 mm
20:09 6.9 °C 5.1 °C 1014.8 hPa SW 1.6 km/h 8 km/h 88% 0 mm
20:14 6.9 °C 5.1 °C 1015.1 hPa WSW 3.2 km/h 8 km/h 88% 0 mm
20:19 6.8 °C 5 °C 1015.1 hPa SW 9.7 km/h 9.7 km/h 88% 0 mm
20:24 6.8 °C 5 °C 1015.1 hPa SW 4.8 km/h 9.7 km/h 88% 0 mm
20:29 6.8 °C 5 °C 1015.1 hPa SW 4.8 km/h 9.7 km/h 88% 0 mm
20:34 6.8 °C 4.9 °C 1015.1 hPa SSW 4.8 km/h 9.7 km/h 88% 0 mm
20:39 6.8 °C 4.9 °C 1015.1 hPa SW 4.8 km/h 9.7 km/h 88% 0 mm
20:44 6.8 °C 5 °C 1015.1 hPa SW 3.2 km/h 6.4 km/h 88% 0 mm
20:49 6.8 °C 5.2 °C 1015.1 hPa SW 3.2 km/h 6.4 km/h 89% 0 mm
20:59 6.9 °C 5.1 °C 1015.5 hPa SW 3.2 km/h 6.4 km/h 88% 0 mm
21:04 7 °C 5.2 °C 1015.5 hPa SW 3.2 km/h 6.4 km/h 88% 0 mm
21:09 7.1 °C 5.3 °C 1015.5 hPa SW 1.6 km/h 4.8 km/h 88% 0 mm
21:14 7.2 °C 5.4 °C 1015.5 hPa WSW 3.2 km/h 6.4 km/h 88% 0 mm
21:19 7.3 °C 5.3 °C 1015.5 hPa Calm   6.4 km/h 87% 0 mm
21:24 7.3 °C 5.3 °C 1015.8 hPa Calm   4.8 km/h 87% 0 mm
21:29 7.3 °C 5.3 °C 1015.8 hPa SSW 1.6 km/h 4.8 km/h 87% 0 mm
21:34 7.3 °C 5.3 °C 1015.8 hPa SW 3.2 km/h 6.4 km/h 87% 0 mm
21:39 7.3 °C 5.3 °C 1015.8 hPa SW 4.8 km/h 8 km/h 87% 0 mm
21:44 7.3 °C 5.3 °C 1015.8 hPa SW 4.8 km/h 8 km/h 87% 0 mm
21:49 7.3 °C 5.3 °C 1015.8 hPa SW 4.8 km/h 4.8 km/h 87% 0 mm
21:54 7.3 °C 5.5 °C 1015.8 hPa SW 3.2 km/h 6.4 km/h 88% 0 mm
21:59 7.3 °C 5.3 °C 1015.8 hPa SW 4.8 km/h 4.8 km/h 87% 0 mm
22:04 7.3 °C 5.3 °C 1015.8 hPa Calm   4.8 km/h 87% 0 mm
22:09 7.4 °C 5.1 °C 1016.1 hPa NW 3.2 km/h 12.9 km/h 85% 0 mm
22:14 7.7 °C 4.8 °C 1015.8 hPa West 4.8 km/h 9.7 km/h 82% 0 mm
22:19 7.8 °C 4.7 °C 1015.8 hPa WNW 4.8 km/h 12.9 km/h 81% 0 mm
22:24 7.8 °C 4.2 °C 1016.1 hPa WNW 4.8 km/h 12.9 km/h 78% 0 mm
22:29 7.8 °C 4.2 °C 1016.1 hPa WNW 4.8 km/h 12.9 km/h 78% 0 mm
22:34 7.9 °C 4.1 °C 1016.1 hPa WNW 3.2 km/h 8 km/h 77% 0 mm
22:39 7.8 °C 4.1 °C 1016.1 hPa Calm   6.4 km/h 77% 0 mm
22:44 7.8 °C 4.1 °C 1016.1 hPa West 3.2 km/h 4.8 km/h 77% 0 mm
22:49 7.8 °C 4 °C 1016.1 hPa West 1.6 km/h 8 km/h 77% 0 mm
22:54 7.8 °C 3.8 °C 1016.1 hPa West 3.2 km/h 14.5 km/h 76% 0 mm
22:59 7.7 °C 3.8 °C 1016.1 hPa West 4.8 km/h 14.5 km/h 76% 0 mm
23:04 7.7 °C 3.6 °C 1016.1 hPa West 6.4 km/h 11.3 km/h 75% 0 mm
23:09 7.7 °C 3.7 °C 1016.1 hPa West 3.2 km/h 11.3 km/h 76% 0 mm
23:14 7.7 °C 3.7 °C 1016.5 hPa West 9.7 km/h 12.9 km/h 76% 0 mm
23:19 7.6 °C 3.7 °C 1016.5 hPa West 4.8 km/h 12.9 km/h 76% 0 mm
23:24 7.6 °C 3.7 °C 1016.5 hPa West 1.6 km/h 9.7 km/h 76% 0 mm
23:29 7.6 °C 3.4 °C 1016.5 hPa West 4.8 km/h 11.3 km/h 75% 0 mm
23:34 7.6 °C 3.4 °C 1016.5 hPa WSW 4.8 km/h 12.9 km/h 75% 0 mm
23:39 7.6 °C 3.4 °C 1016.5 hPa WSW 6.4 km/h 11.3 km/h 75% 0 mm
23:44 7.6 °C 3.4 °C 1016.5 hPa West 8 km/h 12.9 km/h 75% 0 mm
23:49 7.5 °C 3.3 °C 1016.5 hPa West 6.4 km/h 12.9 km/h 75% 0 mm
23:54 7.4 °C 3.3 °C 1016.5 hPa West 6.4 km/h 12.9 km/h 75% 0 mm
23:59 7.4 °C 3.2 °C 1016.5 hPa West 8 km/h 16.1 km/h 75% 0 mm
Buffalo, New York, USA
Compliments of Weather Underground - 2.5 mb